createdAt,value
2017-12-24T00:08:50.000Z,51
2017-12-24T00:18:50.000Z,51
2017-12-24T00:28:50.000Z,51
2017-12-24T00:38:50.000Z,50.9
2017-12-24T00:48:50.000Z,50.8
2017-12-24T00:58:50.000Z,50.7
2017-12-24T01:08:50.000Z,50.6
2017-12-24T01:18:50.000Z,50.8
2017-12-24T01:28:50.000Z,51.1
2017-12-24T01:38:51.000Z,51.2
2017-12-24T01:48:50.000Z,52.9
2017-12-24T01:58:50.000Z,54.1
2017-12-24T02:08:50.000Z,54.7
2017-12-24T02:18:50.000Z,55
2017-12-24T02:28:50.000Z,55
2017-12-24T02:38:50.000Z,54.6
2017-12-24T02:48:50.000Z,54.1
2017-12-24T02:58:51.000Z,54.1
2017-12-24T03:08:50.000Z,53.8
2017-12-24T03:18:50.000Z,50.1
2017-12-24T03:28:50.000Z,47.1
2017-12-24T03:38:50.000Z,47.2
2017-12-24T03:48:50.000Z,47.3
2017-12-24T03:58:50.000Z,47.3
2017-12-24T04:08:50.000Z,47.5
2017-12-24T04:18:50.000Z,47.8
2017-12-24T04:28:50.000Z,47.9
2017-12-24T04:38:50.000Z,48
2017-12-24T04:48:50.000Z,48.2
2017-12-24T04:58:50.000Z,48.3
2017-12-24T05:08:50.000Z,48.3
2017-12-24T05:18:50.000Z,48.3
2017-12-24T05:28:50.000Z,48.4
2017-12-24T05:38:50.000Z,48.2
2017-12-24T05:48:52.000Z,48.1
2017-12-24T05:58:50.000Z,48
2017-12-24T06:08:50.000Z,48.3
2017-12-24T06:18:50.000Z,48.2
2017-12-24T06:28:50.000Z,48.3
2017-12-24T06:38:50.000Z,47.9
2017-12-24T06:48:51.000Z,48.9
2017-12-24T06:58:51.000Z,47.8
2017-12-24T07:08:51.000Z,47.7
2017-12-24T07:18:51.000Z,47.8
2017-12-24T07:28:51.000Z,48.1
2017-12-24T07:38:51.000Z,48.1
2017-12-24T07:48:51.000Z,48.2
2017-12-24T07:58:51.000Z,48.3
2017-12-24T08:08:51.000Z,48.5
2017-12-24T08:18:51.000Z,48.3
2017-12-24T08:28:51.000Z,48.4
2017-12-24T08:38:51.000Z,49.6
2017-12-24T08:48:51.000Z,50.7
2017-12-24T08:58:51.000Z,52.3
2017-12-24T09:08:51.000Z,52.6
2017-12-24T09:18:51.000Z,51.9
2017-12-24T09:28:51.000Z,52.5
2017-12-24T09:38:51.000Z,51.4
2017-12-24T09:48:51.000Z,52.3
2017-12-24T09:58:51.000Z,53.4
2017-12-24T10:08:51.000Z,53.3
2017-12-24T10:18:51.000Z,54.5
2017-12-24T10:28:51.000Z,54.6
2017-12-24T10:38:51.000Z,54.5
2017-12-24T10:48:51.000Z,54.5
2017-12-24T10:58:51.000Z,54.4
2017-12-24T11:08:51.000Z,54.4
2017-12-24T11:18:51.000Z,54.3
2017-12-24T11:28:51.000Z,54.4
2017-12-24T11:38:51.000Z,54.2
2017-12-24T11:48:51.000Z,54.2
2017-12-24T11:58:54.000Z,54.2
2017-12-24T12:08:51.000Z,54.2
2017-12-24T12:18:51.000Z,54.3
2017-12-24T12:28:51.000Z,54.2
2017-12-24T12:38:51.000Z,54
2017-12-24T12:48:51.000Z,54.2
2017-12-24T12:58:51.000Z,54.3
2017-12-24T13:08:51.000Z,54.2
2017-12-24T13:18:52.000Z,53.7
2017-12-24T13:28:52.000Z,53.7
2017-12-24T13:38:51.000Z,55.7
2017-12-24T13:48:52.000Z,56
2017-12-24T13:58:52.000Z,56
2017-12-24T14:08:52.000Z,57.4
2017-12-24T14:18:52.000Z,58.4
2017-12-24T14:28:52.000Z,59.2
2017-12-24T14:38:55.000Z,59.8
2017-12-24T14:48:52.000Z,59.6
2017-12-24T14:58:52.000Z,60.5
2017-12-24T15:08:52.000Z,61
2017-12-24T15:18:52.000Z,61.5
2017-12-24T15:28:52.000Z,61.4
2017-12-24T15:38:52.000Z,61.1
2017-12-24T15:48:52.000Z,61.9
2017-12-24T15:58:52.000Z,62.5
2017-12-24T16:08:52.000Z,61.9
2017-12-24T16:18:52.000Z,61.1
2017-12-24T16:28:52.000Z,60.7
2017-12-24T16:38:52.000Z,60.8
2017-12-24T16:48:52.000Z,60.4
2017-12-24T16:58:52.000Z,60.5
2017-12-24T17:08:52.000Z,60.5
2017-12-24T17:18:52.000Z,60.4
2017-12-24T17:28:52.000Z,60.1
2017-12-24T17:38:52.000Z,60.5
2017-12-24T17:48:53.000Z,61.4
2017-12-24T17:58:52.000Z,60.7
2017-12-24T18:08:52.000Z,60.1
2017-12-24T18:18:52.000Z,60.5
2017-12-24T18:28:52.000Z,60.6
2017-12-24T18:38:52.000Z,59.7
2017-12-24T18:48:52.000Z,60.4
2017-12-24T18:58:52.000Z,62
2017-12-24T19:08:52.000Z,62.3
2017-12-24T19:18:52.000Z,61.7
2017-12-24T19:28:52.000Z,62.4
2017-12-24T19:38:52.000Z,62.5
2017-12-24T19:48:52.000Z,62.8
2017-12-24T19:58:52.000Z,63.1
2017-12-24T20:08:52.000Z,63.1
2017-12-24T20:18:52.000Z,62.9
2017-12-24T20:28:52.000Z,62.9
2017-12-24T20:38:52.000Z,62.9
2017-12-24T20:48:53.000Z,63.1
2017-12-24T20:58:53.000Z,63.3
2017-12-24T21:08:53.000Z,63.5
2017-12-24T21:18:53.000Z,63.6
2017-12-24T21:28:53.000Z,63.7
2017-12-24T21:38:53.000Z,63
2017-12-24T21:48:53.000Z,63
2017-12-24T22:08:53.000Z,63.1
2017-12-24T22:18:53.000Z,63.4
2017-12-24T22:28:53.000Z,63.1
2017-12-24T22:38:53.000Z,62.9
2017-12-24T22:48:53.000Z,63
2017-12-24T22:58:53.000Z,63
2017-12-24T23:08:56.000Z,62.9
2017-12-24T23:18:53.000Z,62.9
2017-12-24T23:28:53.000Z,62.8
2017-12-24T23:38:54.000Z,62.7
2017-12-24T23:48:53.000Z,62.8
2017-12-24T23:58:53.000Z,62.6
